AMQ562 EPKT-LTBJ
Flight info
| Callsign | AMQ562 |
|---|---|
| Flight time | N/A |
| Altitude | 23000 |
| Route | REGTO T195 RAZEC N133 KEKED/N0447F370 DCT NARKA DCT RODIP UN131 DUGLA UN618 BERGO |
| Aircraft | A320/M-SDE3FGHIRWY/LB1 |
Departure
| Time | 2026-05-07 19:20 |
|---|---|
| Airport | Katowice Wojciech Korfanty International Airport (EPKT) |
Arrival
| Time | N/A |
|---|---|
| Airport | Adnan Menderes International Airport (LTBJ) |
| Time | Latitude | Longitude | Altitude | Speed | Heading |
|---|---|---|---|---|---|
| 2026-05-07 18:55 | 50.47147 | 19.07826 | 999 ft | 0 kts | 180° |
| 2026-05-07 19:04 | 50.47153 | 19.07826 | 998 ft | 4 kts | 180° |
| 2026-05-07 19:05 | 50.47180 | 19.07827 | 1001 ft | 4 kts | 180° |
| 2026-05-07 19:05 | 50.47202 | 19.07827 | 998 ft | 4 kts | 179° |
| 2026-05-07 19:05 | 50.47226 | 19.07818 | 1000 ft | 4 kts | 133° |
| 2026-05-07 19:05 | 50.47234 | 19.07787 | 998 ft | 4 kts | 90° |
| 2026-05-07 19:06 | 50.47234 | 19.07757 | 998 ft | 0 kts | 90° |
| 2026-05-07 19:09 | 50.47234 | 19.07761 | 998 ft | 3 kts | 90° |
| 2026-05-07 19:09 | 50.47233 | 19.07875 | 998 ft | 15 kts | 90° |
| 2026-05-07 19:09 | 50.47233 | 19.08047 | 1001 ft | 17 kts | 90° |
| 2026-05-07 19:09 | 50.47233 | 19.08236 | 1003 ft | 18 kts | 90° |
| 2026-05-07 19:10 | 50.47233 | 19.08440 | 998 ft | 19 kts | 90° |
| 2026-05-07 19:10 | 50.47232 | 19.08658 | 998 ft | 21 kts | 90° |
| 2026-05-07 19:10 | 50.47233 | 19.08888 | 998 ft | 22 kts | 90° |
| 2026-05-07 19:10 | 50.47231 | 19.09129 | 1001 ft | 22 kts | 90° |
| 2026-05-07 19:11 | 50.47230 | 19.09378 | 998 ft | 23 kts | 90° |
| 2026-05-07 19:11 | 50.47230 | 19.09634 | 1000 ft | 24 kts | 90° |
| 2026-05-07 19:11 | 50.47229 | 19.09870 | 1000 ft | 18 kts | 90° |
| 2026-05-07 19:11 | 50.47243 | 19.10037 | 1000 ft | 15 kts | 54° |
| 2026-05-07 19:12 | 50.47312 | 19.10177 | 998 ft | 17 kts | 52° |
| 2026-05-07 19:12 | 50.47387 | 19.10329 | 998 ft | 16 kts | 52° |
| 2026-05-07 19:12 | 50.47406 | 19.10367 | 999 ft | 0 kts | 51° |
| 2026-05-07 19:18 | 50.47435 | 19.10421 | 1002 ft | 14 kts | 47° |
| 2026-05-07 19:18 | 50.47535 | 19.10450 | 998 ft | 16 kts | 359° |
| 2026-05-07 19:18 | 50.47594 | 19.10395 | 1003 ft | 9 kts | 276° |
| 2026-05-07 19:19 | 50.47596 | 19.10205 | 1000 ft | 45 kts | 270° |
| 2026-05-07 19:19 | 50.47597 | 19.09312 | 1001 ft | 114 kts | 270° |
| 2026-05-07 19:19 | 50.47600 | 19.07758 | 1000 ft | 168 kts | 270° |
| 2026-05-07 19:19 | 50.47601 | 19.05782 | 1366 ft | 185 kts | 270° |
| 2026-05-07 19:20 | 50.47605 | 19.03772 | 2190 ft | 182 kts | 272° |
| 2026-05-07 19:20 | 50.47609 | 19.01792 | 2945 ft | 184 kts | 272° |
| 2026-05-07 19:20 | 50.47612 | 18.99676 | 3313 ft | 204 kts | 272° |
| 2026-05-07 19:20 | 50.47609 | 18.97346 | 3677 ft | 224 kts | 268° |
| 2026-05-07 19:21 | 50.47063 | 18.94970 | 4206 ft | 242 kts | 230° |
| 2026-05-07 19:21 | 50.45606 | 18.93521 | 4840 ft | 263 kts | 198° |
| 2026-05-07 19:21 | 50.43765 | 18.93115 | 5681 ft | 271 kts | 184° |
| 2026-05-07 19:21 | 50.41873 | 18.93160 | 6671 ft | 273 kts | 180° |
| 2026-05-07 19:22 | 50.39971 | 18.93335 | 7584 ft | 275 kts | 179° |
| 2026-05-07 19:22 | 50.38050 | 18.93511 | 8479 ft | 278 kts | 180° |
| 2026-05-07 19:22 | 50.36106 | 18.93635 | 9378 ft | 281 kts | 181° |
| 2026-05-07 19:22 | 50.34145 | 18.93706 | 10213 ft | 285 kts | 181° |
| 2026-05-07 19:23 | 50.32089 | 18.94106 | 10528 ft | 312 kts | 167° |
| 2026-05-07 19:23 | 50.30063 | 18.95639 | 10849 ft | 337 kts | 144° |
| 2026-05-07 19:23 | 50.28425 | 18.98335 | 11500 ft | 348 kts | 131° |
| 2026-05-07 19:23 | 50.26895 | 19.01299 | 12292 ft | 351 kts | 131° |
| 2026-05-07 19:24 | 50.25377 | 19.04294 | 13096 ft | 354 kts | 131° |
| 2026-05-07 19:24 | 50.23849 | 19.07319 | 13872 ft | 357 kts | 131° |
| 2026-05-07 19:24 | 50.22302 | 19.10377 | 14554 ft | 360 kts | 131° |
| 2026-05-07 19:24 | 50.20742 | 19.13454 | 15224 ft | 362 kts | 131° |
| 2026-05-07 19:25 | 50.19164 | 19.16554 | 15896 ft | 365 kts | 131° |
| 2026-05-07 19:25 | 50.17579 | 19.19661 | 16586 ft | 367 kts | 132° |
| 2026-05-07 19:25 | 50.15980 | 19.22789 | 17246 ft | 370 kts | 132° |
| 2026-05-07 19:25 | 50.14365 | 19.25938 | 17894 ft | 374 kts | 132° |
| 2026-05-07 19:26 | 50.12732 | 19.29114 | 18493 ft | 377 kts | 132° |
| 2026-05-07 19:26 | 50.11089 | 19.32309 | 19098 ft | 379 kts | 133° |
| 2026-05-07 19:26 | 50.09461 | 19.35474 | 19714 ft | 380 kts | 133° |
| 2026-05-07 19:26 | 50.07807 | 19.38686 | 20348 ft | 381 kts | 133° |
| 2026-05-07 19:27 | 50.06162 | 19.41872 | 20983 ft | 382 kts | 133° |
| 2026-05-07 19:27 | 50.04488 | 19.45110 | 21612 ft | 384 kts | 133° |
| 2026-05-07 19:27 | 50.02813 | 19.48353 | 22223 ft | 385 kts | 133° |
| 2026-05-07 19:27 | 50.01135 | 19.51605 | 22748 ft | 387 kts | 133° |
| 2026-05-07 19:28 | 49.99446 | 19.54870 | 22946 ft | 387 kts | 133° |
| 2026-05-07 19:28 | 49.97757 | 19.58133 | 22984 ft | 387 kts | 133° |
| 2026-05-07 19:28 | 49.96069 | 19.61389 | 22981 ft | 387 kts | 133° |
| 2026-05-07 19:28 | 49.94379 | 19.64642 | 22978 ft | 387 kts | 133° |
| 2026-05-07 19:29 | 49.92688 | 19.67888 | 22987 ft | 387 kts | 133° |
| 2026-05-07 19:29 | 49.90998 | 19.71128 | 22985 ft | 387 kts | 133° |
| 2026-05-07 19:29 | 49.89304 | 19.74370 | 22985 ft | 387 kts | 133° |
| 2026-05-07 19:29 | 49.87610 | 19.77607 | 22985 ft | 387 kts | 133° |
| 2026-05-07 19:30 | 49.85919 | 19.80843 | 22984 ft | 386 kts | 133° |
| 2026-05-07 19:30 | 49.84231 | 19.84071 | 22982 ft | 385 kts | 133° |
| 2026-05-07 19:30 | 49.82542 | 19.87291 | 22951 ft | 385 kts | 133° |
| 2026-05-07 19:30 | 49.80852 | 19.90502 | 22952 ft | 385 kts | 133° |
| 2026-05-07 19:31 | 49.79160 | 19.93716 | 22968 ft | 385 kts | 133° |
| 2026-05-07 19:31 | 49.77466 | 19.96936 | 22967 ft | 386 kts | 133° |
| 2026-05-07 19:31 | 49.75769 | 20.00162 | 22970 ft | 386 kts | 133° |
| 2026-05-07 19:31 | 49.74072 | 20.03382 | 22970 ft | 386 kts | 133° |
| 2026-05-07 19:32 | 49.72374 | 20.06597 | 22968 ft | 387 kts | 133° |
| 2026-05-07 19:32 | 49.70670 | 20.09817 | 22975 ft | 387 kts | 133° |
| 2026-05-07 19:32 | 49.68965 | 20.13032 | 22976 ft | 387 kts | 133° |
| 2026-05-07 19:32 | 49.67262 | 20.16242 | 22975 ft | 387 kts | 133° |
| 2026-05-07 19:33 | 49.65559 | 20.19455 | 22980 ft | 387 kts | 133° |
| 2026-05-07 19:33 | 49.63854 | 20.22667 | 22955 ft | 387 kts | 133° |
| 2026-05-07 19:33 | 49.62141 | 20.25884 | 22950 ft | 388 kts | 133° |
| 2026-05-07 19:33 | 49.60425 | 20.29102 | 22954 ft | 389 kts | 133° |
| 2026-05-07 19:34 | 49.58704 | 20.32331 | 22957 ft | 390 kts | 133° |
| 2026-05-07 19:34 | 49.56979 | 20.35564 | 22960 ft | 391 kts | 133° |
| 2026-05-07 19:34 | 49.55274 | 20.38755 | 22964 ft | 391 kts | 133° |
| 2026-05-07 19:34 | 49.53543 | 20.41989 | 22966 ft | 391 kts | 133° |
| 2026-05-07 19:35 | 49.51809 | 20.45220 | 22968 ft | 391 kts | 133° |
| 2026-05-07 19:35 | 49.50076 | 20.48449 | 22978 ft | 392 kts | 133° |
| 2026-05-07 19:35 | 49.48341 | 20.51681 | 22975 ft | 392 kts | 133° |
| 2026-05-07 19:35 | 49.46582 | 20.54949 | 22951 ft | 392 kts | 133° |
| 2026-05-07 19:36 | 49.44836 | 20.58184 | 22987 ft | 396 kts | 133° |
| 2026-05-07 19:36 | 49.43069 | 20.61457 | 22994 ft | 399 kts | 133° |
| 2026-05-07 19:36 | 49.41297 | 20.64738 | 22992 ft | 399 kts | 133° |
| 2026-05-07 19:36 | 49.39463 | 20.67833 | 22995 ft | 396 kts | 139° |
| 2026-05-07 19:37 | 49.37490 | 20.70792 | 22993 ft | 397 kts | 139° |
| 2026-05-07 19:37 | 49.35514 | 20.73747 | 22993 ft | 397 kts | 139° |